首页
METAR-TAF:

METAR-TAF

机场 :

北極灣, 努那武特, 加拿大

纬度: 73-00-23N, 经度: 085-02-50W, 海拔: 22米

当前天气观测

该预报发布于1小时和24分钟前的15:00 UTC
风速12节,风向西转西北,有时为21节阵风
温度 9°C
湿度 57%
气压 1004 hPa
能見度: 24.1公里
少量云层高于21000英尺

METAR: CYAB 241500Z 30012G21KT 15SM FEW210 09/01 A2966 RMK CC1 CI ASOCTD SLP049

时间: 12:24 (16:24 UTC)

预报

该预报发布于3小时和44分钟前的12:40 UTC
预报有效从24日的 13点(UTC)到 24日的 22点(UTC)
风速12节,风向
能見度: 10公里
多云层高于20000英尺
成为
从 24日的 14点(UTC)到 24日的 16点(UTC)
风速10节,风向西转西北

TAF: CYAB 241240Z 2413/2422 19012KT P6SM BKN200 BECMG 2414/2416 30010KT RMK NXT FCST BY 241900Z

超过4000个机场的气象观测和天气预报(METAR&TAF报告)。

可查询的气象台以黄色和红色小点在地图上表示。

将鼠标移到小点上方,可查看气象台名称。

然后点击查看天气观测和预报。

如需切换地图:点击带黑十字的绿色按钮放大地图;点击带横线的绿色按钮缩小地图;或者点击绿色箭头查看邻近地区的地图。


METAR-TAF: